Terminal Aerodrome Forecast
Issued by NWS

Home | Current Version | Previous Version | Text Only | Print | Product List | Glossary On
Versions: 1 2 3 4 5 6 7 8 9 10 11 12 13 14 15 16 17 18 19 20 21 22 23 24 25 26 27 28
807
FTUS43 KEAX 231501 AAA
TAFMKC
TAF AMD
KMKC 231501Z 2315/2412 28004KT 6SM BR OVC006
      TEMPO 2315/2316 3SM BR OVC002
     FM231700 VRB04KT P6SM SCT200
     FM232300 13006KT P6SM SCT120=

USA.gov is the U.S. government's official web portal to all federal, state and local government web resources and services.